sensor_id;sensor_type;location;lat;lon;timestamp;P1;durP1;ratioP1;P2;durP2;ratioP2
51764;SDS011;37835;53.256;6.456;2023-07-09T00:01:45;8.20;;;6.25;;
51764;SDS011;37835;53.256;6.456;2023-07-09T00:04:11;10.85;;;6.00;;
51764;SDS011;37835;53.256;6.456;2023-07-09T00:06:37;7.22;;;5.85;;
51764;SDS011;37835;53.256;6.456;2023-07-09T00:09:04;13.38;;;6.95;;
51764;SDS011;37835;53.256;6.456;2023-07-09T00:11:30;8.82;;;6.45;;
51764;SDS011;37835;53.256;6.456;2023-07-09T00:13:56;10.85;;;6.47;;
51764;SDS011;37835;53.256;6.456;2023-07-09T00:16:23;13.65;;;6.30;;
51764;SDS011;37835;53.256;6.456;2023-07-09T00:18:50;10.88;;;6.55;;
51764;SDS011;37835;53.256;6.456;2023-07-09T00:21:19;11.55;;;6.55;;
51764;SDS011;37835;53.256;6.456;2023-07-09T00:23:46;7.15;;;6.45;;
51764;SDS011;37835;53.256;6.456;2023-07-09T00:26:14;12.20;;;6.18;;
51764;SDS011;37835;53.256;6.456;2023-07-09T00:28:41;9.25;;;7.00;;
51764;SDS011;37835;53.256;6.456;2023-07-09T00:31:11;6.47;;;5.82;;
51764;SDS011;37835;53.256;6.456;2023-07-09T00:33:39;8.63;;;6.57;;
51764;SDS011;37835;53.256;6.456;2023-07-09T00:36:26;13.55;;;7.15;;
51764;SDS011;37835;53.256;6.456;2023-07-09T00:38:59;8.50;;;6.75;;
51764;SDS011;37835;53.256;6.456;2023-07-09T00:41:29;7.00;;;6.30;;
51764;SDS011;37835;53.256;6.456;2023-07-09T00:44:23;8.07;;;6.90;;
51764;SDS011;37835;53.256;6.456;2023-07-09T00:49:31;11.27;;;7.35;;
51764;SDS011;37835;53.256;6.456;2023-07-09T00:52:13;10.15;;;7.60;;
51764;SDS011;37835;53.256;6.456;2023-07-09T00:54:53;8.80;;;6.93;;
51764;SDS011;37835;53.256;6.456;2023-07-09T00:57:21;7.82;;;7.10;;
51764;SDS011;37835;53.256;6.456;2023-07-09T00:59:51;7.88;;;7.07;;
51764;SDS011;37835;53.256;6.456;2023-07-09T01:02:32;7.30;;;6.60;;
51764;SDS011;37835;53.256;6.456;2023-07-09T01:04:59;11.77;;;7.10;;
51764;SDS011;37835;53.256;6.456;2023-07-09T01:07:30;9.02;;;6.70;;
51764;SDS011;37835;53.256;6.456;2023-07-09T01:09:55;11.70;;;7.07;;
51764;SDS011;37835;53.256;6.456;2023-07-09T01:12:21;9.43;;;6.90;;
51764;SDS011;37835;53.256;6.456;2023-07-09T01:14:48;8.15;;;6.85;;
51764;SDS011;37835;53.256;6.456;2023-07-09T01:17:18;9.90;;;6.88;;
51764;SDS011;37835;53.256;6.456;2023-07-09T01:19:44;9.90;;;6.85;;
51764;SDS011;37835;53.256;6.456;2023-07-09T01:22:16;8.90;;;6.85;;
51764;SDS011;37835;53.256;6.456;2023-07-09T01:24:56;9.23;;;6.78;;
51764;SDS011;37835;53.256;6.456;2023-07-09T01:27:30;7.40;;;6.60;;
51764;SDS011;37835;53.256;6.456;2023-07-09T01:30:03;10.32;;;7.15;;
51764;SDS011;37835;53.256;6.456;2023-07-09T01:32:34;12.13;;;7.95;;
51764;SDS011;37835;53.256;6.456;2023-07-09T01:35:03;8.35;;;7.00;;
51764;SDS011;37835;53.256;6.456;2023-07-09T01:37:33;9.52;;;7.65;;
51764;SDS011;37835;53.256;6.456;2023-07-09T01:40:01;11.10;;;8.02;;
51764;SDS011;37835;53.256;6.456;2023-07-09T01:42:30;8.88;;;7.60;;
51764;SDS011;37835;53.256;6.456;2023-07-09T01:44:56;8.82;;;6.97;;
51764;SDS011;37835;53.256;6.456;2023-07-09T01:47:22;8.55;;;7.35;;
51764;SDS011;37835;53.256;6.456;2023-07-09T01:52:16;11.35;;;7.82;;
51764;SDS011;37835;53.256;6.456;2023-07-09T01:54:44;8.88;;;7.80;;
51764;SDS011;37835;53.256;6.456;2023-07-09T01:57:15;7.60;;;6.80;;
51764;SDS011;37835;53.256;6.456;2023-07-09T01:59:49;11.00;;;7.53;;
51764;SDS011;37835;53.256;6.456;2023-07-09T02:02:15;9.60;;;7.68;;
51764;SDS011;37835;53.256;6.456;2023-07-09T02:04:47;11.13;;;7.10;;
51764;SDS011;37835;53.256;6.456;2023-07-09T02:07:14;7.40;;;6.68;;
51764;SDS011;37835;53.256;6.456;2023-07-09T02:09:40;9.50;;;6.97;;
51764;SDS011;37835;53.256;6.456;2023-07-09T02:12:06;9.55;;;7.55;;
51764;SDS011;37835;53.256;6.456;2023-07-09T02:14:33;8.48;;;7.32;;
51764;SDS011;37835;53.256;6.456;2023-07-09T02:16:58;8.80;;;7.45;;
51764;SDS011;37835;53.256;6.456;2023-07-09T02:19:24;7.72;;;7.00;;
51764;SDS011;37835;53.256;6.456;2023-07-09T02:21:49;12.70;;;7.68;;
51764;SDS011;37835;53.256;6.456;2023-07-09T02:24:15;10.45;;;7.32;;
51764;SDS011;37835;53.256;6.456;2023-07-09T02:26:40;10.98;;;6.78;;
51764;SDS011;37835;53.256;6.456;2023-07-09T02:29:06;9.40;;;7.30;;
51764;SDS011;37835;53.256;6.456;2023-07-09T02:31:32;7.60;;;6.80;;
51764;SDS011;37835;53.256;6.456;2023-07-09T02:33:58;8.95;;;7.63;;
51764;SDS011;37835;53.256;6.456;2023-07-09T02:36:25;8.02;;;7.22;;
51764;SDS011;37835;53.256;6.456;2023-07-09T02:38:51;12.70;;;7.97;;
51764;SDS011;37835;53.256;6.456;2023-07-09T02:41:16;13.32;;;9.02;;
51764;SDS011;37835;53.256;6.456;2023-07-09T02:43:42;8.70;;;7.47;;
51764;SDS011;37835;53.256;6.456;2023-07-09T02:46:08;11.32;;;8.05;;
51764;SDS011;37835;53.256;6.456;2023-07-09T02:48:33;7.93;;;7.18;;
51764;SDS011;37835;53.256;6.456;2023-07-09T02:50:59;7.97;;;7.18;;
51764;SDS011;37835;53.256;6.456;2023-07-09T02:53:25;9.27;;;7.60;;
51764;SDS011;37835;53.256;6.456;2023-07-09T02:55:52;9.70;;;7.65;;
51764;SDS011;37835;53.256;6.456;2023-07-09T02:58:17;10.40;;;8.50;;
51764;SDS011;37835;53.256;6.456;2023-07-09T03:00:43;9.50;;;8.35;;
51764;SDS011;37835;53.256;6.456;2023-07-09T03:03:17;8.85;;;7.95;;
51764;SDS011;37835;53.256;6.456;2023-07-09T03:05:44;10.13;;;8.50;;
51764;SDS011;37835;53.256;6.456;2023-07-09T03:08:10;9.43;;;7.80;;
51764;SDS011;37835;53.256;6.456;2023-07-09T03:10:36;14.27;;;8.25;;
51764;SDS011;37835;53.256;6.456;2023-07-09T03:13:02;9.98;;;7.07;;
51764;SDS011;37835;53.256;6.456;2023-07-09T03:15:28;9.10;;;7.60;;
51764;SDS011;37835;53.256;6.456;2023-07-09T03:17:53;8.30;;;7.38;;
51764;SDS011;37835;53.256;6.456;2023-07-09T03:20:19;9.57;;;7.45;;
51764;SDS011;37835;53.256;6.456;2023-07-09T03:22:44;10.00;;;7.30;;
51764;SDS011;37835;53.256;6.456;2023-07-09T03:25:10;13.45;;;6.88;;
51764;SDS011;37835;53.256;6.456;2023-07-09T03:27:36;11.13;;;7.22;;
51764;SDS011;37835;53.256;6.456;2023-07-09T03:30:01;9.50;;;7.80;;
51764;SDS011;37835;53.256;6.456;2023-07-09T03:32:27;8.15;;;6.90;;
51764;SDS011;37835;53.256;6.456;2023-07-09T03:34:53;8.50;;;7.13;;
51764;SDS011;37835;53.256;6.456;2023-07-09T03:37:18;11.20;;;7.35;;
51764;SDS011;37835;53.256;6.456;2023-07-09T03:39:47;10.90;;;7.72;;
51764;SDS011;37835;53.256;6.456;2023-07-09T03:42:13;9.38;;;7.20;;
51764;SDS011;37835;53.256;6.456;2023-07-09T03:44:39;11.95;;;7.60;;
51764;SDS011;37835;53.256;6.456;2023-07-09T03:47:06;11.18;;;6.88;;
51764;SDS011;37835;53.256;6.456;2023-07-09T03:49:32;11.57;;;7.35;;
51764;SDS011;37835;53.256;6.456;2023-07-09T03:51:58;8.77;;;6.72;;
51764;SDS011;37835;53.256;6.456;2023-07-09T03:54:23;13.18;;;7.47;;
51764;SDS011;37835;53.256;6.456;2023-07-09T03:56:49;10.90;;;7.60;;
51764;SDS011;37835;53.256;6.456;2023-07-09T03:59:15;14.57;;;7.32;;
51764;SDS011;37835;53.256;6.456;2023-07-09T04:01:40;10.73;;;7.63;;
51764;SDS011;37835;53.256;6.456;2023-07-09T04:04:11;10.45;;;7.32;;
51764;SDS011;37835;53.256;6.456;2023-07-09T04:06:37;13.23;;;7.57;;
51764;SDS011;37835;53.256;6.456;2023-07-09T04:09:04;15.40;;;7.22;;
51764;SDS011;37835;53.256;6.456;2023-07-09T04:11:29;11.55;;;7.25;;
51764;SDS011;37835;53.256;6.456;2023-07-09T04:13:55;8.98;;;7.15;;
51764;SDS011;37835;53.256;6.456;2023-07-09T04:16:21;10.35;;;7.40;;
51764;SDS011;37835;53.256;6.456;2023-07-09T04:18:46;8.98;;;7.22;;
51764;SDS011;37835;53.256;6.456;2023-07-09T04:21:12;8.98;;;7.43;;
51764;SDS011;37835;53.256;6.456;2023-07-09T04:23:38;12.27;;;7.20;;
51764;SDS011;37835;53.256;6.456;2023-07-09T04:26:03;10.20;;;7.13;;
51764;SDS011;37835;53.256;6.456;2023-07-09T04:28:30;8.57;;;6.97;;
51764;SDS011;37835;53.256;6.456;2023-07-09T04:30:56;13.70;;;6.78;;
51764;SDS011;37835;53.256;6.456;2023-07-09T04:33:21;12.40;;;7.38;;
51764;SDS011;37835;53.256;6.456;2023-07-09T04:35:47;7.68;;;6.70;;
51764;SDS011;37835;53.256;6.456;2023-07-09T04:38:14;9.45;;;7.50;;
51764;SDS011;37835;53.256;6.456;2023-07-09T04:40:40;9.77;;;7.07;;
51764;SDS011;37835;53.256;6.456;2023-07-09T04:43:06;9.35;;;7.25;;
51764;SDS011;37835;53.256;6.456;2023-07-09T04:45:31;9.75;;;7.03;;
51764;SDS011;37835;53.256;6.456;2023-07-09T04:47:57;8.45;;;7.28;;
51764;SDS011;37835;53.256;6.456;2023-07-09T04:50:23;8.18;;;6.82;;
51764;SDS011;37835;53.256;6.456;2023-07-09T04:52:48;8.10;;;6.43;;
51764;SDS011;37835;53.256;6.456;2023-07-09T04:55:14;9.32;;;7.38;;
51764;SDS011;37835;53.256;6.456;2023-07-09T04:57:39;10.60;;;7.13;;
51764;SDS011;37835;53.256;6.456;2023-07-09T05:00:05;13.68;;;7.65;;
51764;SDS011;37835;53.256;6.456;2023-07-09T05:02:32;8.82;;;7.20;;
51764;SDS011;37835;53.256;6.456;2023-07-09T05:04:58;12.63;;;7.35;;
51764;SDS011;37835;53.256;6.456;2023-07-09T05:07:23;12.80;;;7.72;;
51764;SDS011;37835;53.256;6.456;2023-07-09T05:09:49;7.85;;;7.03;;
51764;SDS011;37835;53.256;6.456;2023-07-09T05:12:14;8.95;;;6.38;;
51764;SDS011;37835;53.256;6.456;2023-07-09T05:14:40;7.60;;;6.60;;
51764;SDS011;37835;53.256;6.456;2023-07-09T05:17:06;8.38;;;7.00;;
51764;SDS011;37835;53.256;6.456;2023-07-09T05:19:32;10.02;;;6.90;;
51764;SDS011;37835;53.256;6.456;2023-07-09T05:21:58;8.82;;;6.85;;
51764;SDS011;37835;53.256;6.456;2023-07-09T05:24:24;9.20;;;7.10;;
51764;SDS011;37835;53.256;6.456;2023-07-09T05:26:49;9.40;;;7.50;;
51764;SDS011;37835;53.256;6.456;2023-07-09T05:29:15;9.68;;;7.05;;
51764;SDS011;37835;53.256;6.456;2023-07-09T05:31:41;11.65;;;7.70;;
51764;SDS011;37835;53.256;6.456;2023-07-09T05:34:07;8.90;;;7.20;;
51764;SDS011;37835;53.256;6.456;2023-07-09T05:36:33;13.98;;;7.63;;
51764;SDS011;37835;53.256;6.456;2023-07-09T05:38:59;9.68;;;6.95;;
51764;SDS011;37835;53.256;6.456;2023-07-09T05:41:25;8.20;;;7.10;;
51764;SDS011;37835;53.256;6.456;2023-07-09T05:43:51;10.82;;;8.23;;
51764;SDS011;37835;53.256;6.456;2023-07-09T05:46:17;9.98;;;7.68;;
51764;SDS011;37835;53.256;6.456;2023-07-09T05:48:44;11.43;;;8.05;;
51764;SDS011;37835;53.256;6.456;2023-07-09T05:51:10;10.40;;;7.47;;
51764;SDS011;37835;53.256;6.456;2023-07-09T05:53:35;9.55;;;7.50;;
51764;SDS011;37835;53.256;6.456;2023-07-09T05:56:01;14.52;;;7.63;;
51764;SDS011;37835;53.256;6.456;2023-07-09T05:58:27;8.88;;;6.88;;
51764;SDS011;37835;53.256;6.456;2023-07-09T06:00:53;10.57;;;7.40;;
51764;SDS011;37835;53.256;6.456;2023-07-09T06:03:19;11.02;;;7.68;;
51764;SDS011;37835;53.256;6.456;2023-07-09T06:05:46;9.60;;;7.85;;
51764;SDS011;37835;53.256;6.456;2023-07-09T06:08:14;13.80;;;7.35;;
51764;SDS011;37835;53.256;6.456;2023-07-09T06:10:49;8.30;;;6.88;;
51764;SDS011;37835;53.256;6.456;2023-07-09T06:13:16;15.55;;;8.00;;
51764;SDS011;37835;53.256;6.456;2023-07-09T06:15:43;10.57;;;7.78;;
51764;SDS011;37835;53.256;6.456;2023-07-09T06:18:09;10.13;;;7.47;;
51764;SDS011;37835;53.256;6.456;2023-07-09T06:20:34;10.88;;;7.72;;
51764;SDS011;37835;53.256;6.456;2023-07-09T06:23:00;14.07;;;7.53;;
51764;SDS011;37835;53.256;6.456;2023-07-09T06:25:25;11.07;;;7.30;;
51764;SDS011;37835;53.256;6.456;2023-07-09T06:27:51;11.40;;;7.55;;
51764;SDS011;37835;53.256;6.456;2023-07-09T06:30:16;9.60;;;7.15;;
51764;SDS011;37835;53.256;6.456;2023-07-09T06:32:44;11.15;;;7.95;;
51764;SDS011;37835;53.256;6.456;2023-07-09T06:35:10;12.65;;;7.93;;
51764;SDS011;37835;53.256;6.456;2023-07-09T06:37:36;12.18;;;7.45;;
51764;SDS011;37835;53.256;6.456;2023-07-09T06:40:02;10.23;;;8.23;;
51764;SDS011;37835;53.256;6.456;2023-07-09T06:42:29;8.93;;;7.72;;
51764;SDS011;37835;53.256;6.456;2023-07-09T06:44:55;14.98;;;8.13;;
51764;SDS011;37835;53.256;6.456;2023-07-09T06:47:21;16.10;;;8.93;;
51764;SDS011;37835;53.256;6.456;2023-07-09T06:49:46;9.82;;;7.15;;
51764;SDS011;37835;53.256;6.456;2023-07-09T06:52:12;69.38;;;9.45;;
51764;SDS011;37835;53.256;6.456;2023-07-09T06:54:37;13.80;;;8.05;;
51764;SDS011;37835;53.256;6.456;2023-07-09T06:57:03;8.27;;;7.47;;
51764;SDS011;37835;53.256;6.456;2023-07-09T06:59:29;9.90;;;7.90;;
51764;SDS011;37835;53.256;6.456;2023-07-09T07:01:54;14.52;;;8.70;;
51764;SDS011;37835;53.256;6.456;2023-07-09T07:04:20;12.50;;;7.95;;
51764;SDS011;37835;53.256;6.456;2023-07-09T07:06:46;12.48;;;8.80;;
51764;SDS011;37835;53.256;6.456;2023-07-09T07:09:11;13.35;;;8.00;;
51764;SDS011;37835;53.256;6.456;2023-07-09T07:11:37;23.33;;;9.13;;
51764;SDS011;37835;53.256;6.456;2023-07-09T07:14:03;14.10;;;8.30;;
51764;SDS011;37835;53.256;6.456;2023-07-09T07:16:28;11.20;;;8.23;;
51764;SDS011;37835;53.256;6.456;2023-07-09T07:18:54;10.80;;;8.02;;
51764;SDS011;37835;53.256;6.456;2023-07-09T07:21:19;9.70;;;7.85;;
51764;SDS011;37835;53.256;6.456;2023-07-09T07:23:45;23.77;;;7.93;;
51764;SDS011;37835;53.256;6.456;2023-07-09T07:26:10;11.48;;;8.10;;
51764;SDS011;37835;53.256;6.456;2023-07-09T07:28:36;12.50;;;8.73;;
51764;SDS011;37835;53.256;6.456;2023-07-09T07:31:05;9.98;;;8.02;;
51764;SDS011;37835;53.256;6.456;2023-07-09T07:33:33;13.27;;;7.38;;
51764;SDS011;37835;53.256;6.456;2023-07-09T07:35:59;11.75;;;7.60;;
51764;SDS011;37835;53.256;6.456;2023-07-09T07:38:25;14.68;;;8.38;;
51764;SDS011;37835;53.256;6.456;2023-07-09T07:40:50;8.65;;;7.43;;
51764;SDS011;37835;53.256;6.456;2023-07-09T07:43:16;8.48;;;7.45;;
51764;SDS011;37835;53.256;6.456;2023-07-09T07:45:42;11.80;;;8.20;;
51764;SDS011;37835;53.256;6.456;2023-07-09T07:48:09;12.93;;;7.93;;
51764;SDS011;37835;53.256;6.456;2023-07-09T07:50:34;14.27;;;7.78;;
51764;SDS011;37835;53.256;6.456;2023-07-09T07:53:01;9.18;;;7.80;;
51764;SDS011;37835;53.256;6.456;2023-07-09T07:55:26;11.77;;;7.53;;
51764;SDS011;37835;53.256;6.456;2023-07-09T07:57:52;9.65;;;7.45;;
51764;SDS011;37835;53.256;6.456;2023-07-09T08:00:18;14.13;;;7.30;;
51764;SDS011;37835;53.256;6.456;2023-07-09T08:02:44;13.00;;;7.50;;
51764;SDS011;37835;53.256;6.456;2023-07-09T08:05:10;12.00;;;7.60;;
51764;SDS011;37835;53.256;6.456;2023-07-09T08:07:35;9.80;;;7.80;;
51764;SDS011;37835;53.256;6.456;2023-07-09T08:10:01;13.27;;;8.85;;
51764;SDS011;37835;53.256;6.456;2023-07-09T08:12:27;9.63;;;8.02;;
51764;SDS011;37835;53.256;6.456;2023-07-09T08:14:52;13.52;;;8.70;;
51764;SDS011;37835;53.256;6.456;2023-07-09T08:17:18;11.38;;;8.60;;
51764;SDS011;37835;53.256;6.456;2023-07-09T08:19:53;17.15;;;10.60;;
51764;SDS011;37835;53.256;6.456;2023-07-09T08:22:19;16.92;;;10.73;;
51764;SDS011;37835;53.256;6.456;2023-07-09T08:24:46;21.92;;;10.68;;
51764;SDS011;37835;53.256;6.456;2023-07-09T08:27:16;15.80;;;9.93;;
51764;SDS011;37835;53.256;6.456;2023-07-09T08:29:43;13.20;;;9.43;;
51764;SDS011;37835;53.256;6.456;2023-07-09T08:32:09;16.42;;;11.15;;
51764;SDS011;37835;53.256;6.456;2023-07-09T08:34:37;11.93;;;9.70;;
51764;SDS011;37835;53.256;6.456;2023-07-09T08:37:05;15.38;;;11.07;;
51764;SDS011;37835;53.256;6.456;2023-07-09T08:39:31;13.68;;;9.85;;
51764;SDS011;37835;53.256;6.456;2023-07-09T08:41:58;14.13;;;10.95;;
51764;SDS011;37835;53.256;6.456;2023-07-09T08:44:50;12.05;;;10.07;;
51764;SDS011;37835;53.256;6.456;2023-07-09T08:47:31;19.10;;;11.38;;
51764;SDS011;37835;53.256;6.456;2023-07-09T08:50:01;16.23;;;11.27;;
51764;SDS011;37835;53.256;6.456;2023-07-09T08:52:35;14.73;;;11.50;;
51764;SDS011;37835;53.256;6.456;2023-07-09T08:57:34;19.67;;;12.68;;
51764;SDS011;37835;53.256;6.456;2023-07-09T09:00:21;16.42;;;11.25;;
51764;SDS011;37835;53.256;6.456;2023-07-09T09:05:17;16.80;;;12.07;;
51764;SDS011;37835;53.256;6.456;2023-07-09T09:07:45;12.82;;;11.50;;
51764;SDS011;37835;53.256;6.456;2023-07-09T09:10:33;17.75;;;11.57;;
51764;SDS011;37835;53.256;6.456;2023-07-09T09:13:11;18.92;;;12.75;;
51764;SDS011;37835;53.256;6.456;2023-07-09T09:15:40;14.32;;;11.85;;
51764;SDS011;37835;53.256;6.456;2023-07-09T09:18:19;16.05;;;11.35;;
51764;SDS011;37835;53.256;6.456;2023-07-09T09:21:01;14.15;;;11.57;;
51764;SDS011;37835;53.256;6.456;2023-07-09T09:23:39;25.08;;;11.57;;
51764;SDS011;37835;53.256;6.456;2023-07-09T09:26:24;19.30;;;11.75;;
51764;SDS011;37835;53.256;6.456;2023-07-09T09:28:57;16.88;;;11.13;;
51764;SDS011;37835;53.256;6.456;2023-07-09T09:31:24;13.93;;;11.23;;
51764;SDS011;37835;53.256;6.456;2023-07-09T09:33:51;19.02;;;10.68;;
51764;SDS011;37835;53.256;6.456;2023-07-09T09:36:19;17.90;;;12.60;;
51764;SDS011;37835;53.256;6.456;2023-07-09T09:38:46;18.05;;;11.00;;
51764;SDS011;37835;53.256;6.456;2023-07-09T09:41:15;16.35;;;12.20;;
51764;SDS011;37835;53.256;6.456;2023-07-09T09:43:45;19.75;;;10.13;;
51764;SDS011;37835;53.256;6.456;2023-07-09T09:46:19;14.77;;;10.27;;
51764;SDS011;37835;53.256;6.456;2023-07-09T09:48:50;12.77;;;10.63;;
51764;SDS011;37835;53.256;6.456;2023-07-09T09:51:19;19.00;;;10.60;;
51764;SDS011;37835;53.256;6.456;2023-07-09T09:53:47;13.65;;;10.43;;
51764;SDS011;37835;53.256;6.456;2023-07-09T09:56:17;17.15;;;10.13;;
51764;SDS011;37835;53.256;6.456;2023-07-09T09:58:45;18.37;;;10.10;;
51764;SDS011;37835;53.256;6.456;2023-07-09T10:01:13;16.80;;;11.45;;
51764;SDS011;37835;53.256;6.456;2023-07-09T10:03:41;46.55;;;11.32;;
51764;SDS011;37835;53.256;6.456;2023-07-09T10:06:29;22.77;;;10.95;;
51764;SDS011;37835;53.256;6.456;2023-07-09T10:09:04;21.88;;;11.90;;
51764;SDS011;37835;53.256;6.456;2023-07-09T10:11:47;13.07;;;9.15;;
51764;SDS011;37835;53.256;6.456;2023-07-09T10:16:50;14.13;;;9.40;;
51764;SDS011;37835;53.256;6.456;2023-07-09T10:24:47;36.63;;;10.02;;
51764;SDS011;37835;53.256;6.456;2023-07-09T10:30:32;12.27;;;8.98;;
51764;SDS011;37835;53.256;6.456;2023-07-09T10:34:16;40.55;;;9.27;;
51764;SDS011;37835;53.256;6.456;2023-07-09T10:36:26;40.67;;;8.30;;
51764;SDS011;37835;53.256;6.456;2023-07-09T10:38:55;30.98;;;9.55;;
51764;SDS011;37835;53.256;6.456;2023-07-09T10:41:34;23.75;;;8.75;;
51764;SDS011;37835;53.256;6.456;2023-07-09T10:46:40;14.70;;;7.68;;
51764;SDS011;37835;53.256;6.456;2023-07-09T10:49:11;12.75;;;7.65;;
51764;SDS011;37835;53.256;6.456;2023-07-09T10:51:40;9.18;;;6.72;;
51764;SDS011;37835;53.256;6.456;2023-07-09T10:54:21;10.30;;;6.47;;
51764;SDS011;37835;53.256;6.456;2023-07-09T10:57:19;11.95;;;6.43;;
51764;SDS011;37835;53.256;6.456;2023-07-09T10:59:49;11.80;;;5.85;;
51764;SDS011;37835;53.256;6.456;2023-07-09T11:02:26;7.72;;;5.72;;
51764;SDS011;37835;53.256;6.456;2023-07-09T11:07:34;13.65;;;6.18;;
51764;SDS011;37835;53.256;6.456;2023-07-09T11:10:11;7.03;;;6.13;;
51764;SDS011;37835;53.256;6.456;2023-07-09T11:12:51;9.98;;;6.57;;
51764;SDS011;37835;53.256;6.456;2023-07-09T11:15:24;12.13;;;6.32;;
51764;SDS011;37835;53.256;6.456;2023-07-09T11:17:56;11.60;;;7.43;;
51764;SDS011;37835;53.256;6.456;2023-07-09T11:20:25;7.72;;;6.82;;
51764;SDS011;37835;53.256;6.456;2023-07-09T11:23:03;13.05;;;6.50;;
51764;SDS011;37835;53.256;6.456;2023-07-09T11:25:40;30.25;;;8.30;;
51764;SDS011;37835;53.256;6.456;2023-07-09T11:28:09;15.48;;;7.13;;
51764;SDS011;37835;53.256;6.456;2023-07-09T11:30:49;9.23;;;7.55;;
51764;SDS011;37835;53.256;6.456;2023-07-09T11:33:28;12.90;;;7.15;;
51764;SDS011;37835;53.256;6.456;2023-07-09T11:36:06;11.77;;;7.07;;
51764;SDS011;37835;53.256;6.456;2023-07-09T11:38:41;14.77;;;7.50;;
51764;SDS011;37835;53.256;6.456;2023-07-09T11:43:49;20.65;;;6.22;;
51764;SDS011;37835;53.256;6.456;2023-07-09T11:46:17;12.00;;;5.90;;
51764;SDS011;37835;53.256;6.456;2023-07-09T11:48:45;45.25;;;7.10;;
51764;SDS011;37835;53.256;6.456;2023-07-09T11:51:17;26.92;;;5.88;;
51764;SDS011;37835;53.256;6.456;2023-07-09T11:53:47;13.50;;;5.78;;
51764;SDS011;37835;53.256;6.456;2023-07-09T11:56:20;10.38;;;5.05;;
51764;SDS011;37835;53.256;6.456;2023-07-09T11:58:55;5.50;;;5.00;;
51764;SDS011;37835;53.256;6.456;2023-07-09T12:01:22;8.15;;;5.00;;
51764;SDS011;37835;53.256;6.456;2023-07-09T12:03:51;7.55;;;5.47;;
51764;SDS011;37835;53.256;6.456;2023-07-09T12:06:23;12.70;;;5.40;;
51764;SDS011;37835;53.256;6.456;2023-07-09T12:08:51;9.52;;;5.55;;
51764;SDS011;37835;53.256;6.456;2023-07-09T12:11:25;8.82;;;5.10;;
51764;SDS011;37835;53.256;6.456;2023-07-09T12:13:53;10.25;;;5.50;;
51764;SDS011;37835;53.256;6.456;2023-07-09T12:16:24;8.60;;;5.15;;
51764;SDS011;37835;53.256;6.456;2023-07-09T12:18:54;12.02;;;5.60;;
51764;SDS011;37835;53.256;6.456;2023-07-09T12:21:19;10.75;;;5.60;;
51764;SDS011;37835;53.256;6.456;2023-07-09T14:37:00;8.88;;;5.88;;
51764;SDS011;37835;53.256;6.456;2023-07-09T14:39:26;15.82;;;6.72;;
51764;SDS011;37835;53.256;6.456;2023-07-09T14:41:53;12.02;;;6.65;;
51764;SDS011;37835;53.256;6.456;2023-07-09T14:46:48;10.30;;;6.13;;
51764;SDS011;37835;53.256;6.456;2023-07-09T14:49:15;17.20;;;6.93;;
51764;SDS011;37835;53.256;6.456;2023-07-09T14:51:42;19.73;;;7.28;;
51764;SDS011;37835;53.256;6.456;2023-07-09T14:54:41;13.70;;;7.50;;
51764;SDS011;37835;53.256;6.456;2023-07-09T14:56:59;12.38;;;8.32;;
51764;SDS011;37835;53.256;6.456;2023-07-09T14:59:25;10.82;;;8.18;;
51764;SDS011;37835;53.256;6.456;2023-07-09T15:01:51;13.88;;;7.63;;
51764;SDS011;37835;53.256;6.456;2023-07-09T15:06:50;17.27;;;10.43;;
51764;SDS011;37835;53.256;6.456;2023-07-09T15:09:19;17.85;;;9.88;;
51764;SDS011;37835;53.256;6.456;2023-07-09T15:11:46;23.70;;;10.90;;
51764;SDS011;37835;53.256;6.456;2023-07-09T15:14:15;13.70;;;9.80;;
51764;SDS011;37835;53.256;6.456;2023-07-09T15:16:40;22.08;;;7.88;;
51764;SDS011;37835;53.256;6.456;2023-07-09T15:19:08;13.68;;;7.55;;
51764;SDS011;37835;53.256;6.456;2023-07-09T15:21:37;31.55;;;7.57;;
51764;SDS011;37835;53.256;6.456;2023-07-09T15:24:03;13.68;;;6.45;;
51764;SDS011;37835;53.256;6.456;2023-07-09T15:26:29;22.33;;;5.90;;
51764;SDS011;37835;53.256;6.456;2023-07-09T15:28:55;9.68;;;5.68;;
51764;SDS011;37835;53.256;6.456;2023-07-09T15:31:20;14.10;;;5.90;;
51764;SDS011;37835;53.256;6.456;2023-07-09T15:33:46;8.95;;;4.93;;
51764;SDS011;37835;53.256;6.456;2023-07-09T15:36:11;10.60;;;5.30;;
51764;SDS011;37835;53.256;6.456;2023-07-09T15:38:37;9.55;;;5.80;;
51764;SDS011;37835;53.256;6.456;2023-07-09T15:41:10;11.70;;;6.13;;
51764;SDS011;37835;53.256;6.456;2023-07-09T15:43:37;7.30;;;5.10;;
51764;SDS011;37835;53.256;6.456;2023-07-09T15:46:03;9.05;;;5.45;;
51764;SDS011;37835;53.256;6.456;2023-07-09T15:50:57;17.35;;;5.80;;
51764;SDS011;37835;53.256;6.456;2023-07-09T15:53:23;12.45;;;6.32;;
51764;SDS011;37835;53.256;6.456;2023-07-09T15:55:50;13.95;;;5.68;;
51764;SDS011;37835;53.256;6.456;2023-07-09T15:58:44;19.15;;;6.18;;
51764;SDS011;37835;53.256;6.456;2023-07-09T16:01:14;14.07;;;6.85;;
51764;SDS011;37835;53.256;6.456;2023-07-09T16:03:45;14.85;;;7.18;;
51764;SDS011;37835;53.256;6.456;2023-07-09T16:06:13;20.30;;;8.20;;
51764;SDS011;37835;53.256;6.456;2023-07-09T16:08:40;12.35;;;7.03;;
51764;SDS011;37835;53.256;6.456;2023-07-09T16:11:12;13.63;;;8.35;;
51764;SDS011;37835;53.256;6.456;2023-07-09T16:13:40;13.63;;;7.95;;
51764;SDS011;37835;53.256;6.456;2023-07-09T16:16:08;15.65;;;8.27;;
51764;SDS011;37835;53.256;6.456;2023-07-09T16:18:38;13.43;;;7.00;;
51764;SDS011;37835;53.256;6.456;2023-07-09T16:21:03;17.10;;;7.97;;
51764;SDS011;37835;53.256;6.456;2023-07-09T16:23:29;16.88;;;6.13;;
51764;SDS011;37835;53.256;6.456;2023-07-09T16:25:55;15.48;;;6.75;;
51764;SDS011;37835;53.256;6.456;2023-07-09T16:28:20;13.48;;;6.90;;
51764;SDS011;37835;53.256;6.456;2023-07-09T16:30:47;11.40;;;5.78;;
51764;SDS011;37835;53.256;6.456;2023-07-09T16:33:15;13.23;;;6.18;;
51764;SDS011;37835;53.256;6.456;2023-07-09T16:35:41;10.35;;;5.22;;
51764;SDS011;37835;53.256;6.456;2023-07-09T16:38:09;9.55;;;4.97;;
51764;SDS011;37835;53.256;6.456;2023-07-09T16:40:36;13.52;;;5.55;;
51764;SDS011;37835;53.256;6.456;2023-07-09T16:43:04;10.32;;;5.65;;
51764;SDS011;37835;53.256;6.456;2023-07-09T16:45:40;8.50;;;4.80;;
51764;SDS011;37835;53.256;6.456;2023-07-09T16:48:13;9.18;;;5.00;;
51764;SDS011;37835;53.256;6.456;2023-07-09T16:50:41;14.70;;;6.03;;
51764;SDS011;37835;53.256;6.456;2023-07-09T16:53:11;15.40;;;5.68;;
51764;SDS011;37835;53.256;6.456;2023-07-09T16:55:38;13.77;;;5.40;;
51764;SDS011;37835;53.256;6.456;2023-07-09T16:58:04;18.75;;;6.50;;
51764;SDS011;37835;53.256;6.456;2023-07-09T17:00:37;18.02;;;5.68;;
51764;SDS011;37835;53.256;6.456;2023-07-09T17:03:04;17.42;;;5.85;;
51764;SDS011;37835;53.256;6.456;2023-07-09T17:05:31;22.23;;;7.00;;
51764;SDS011;37835;53.256;6.456;2023-07-09T17:07:57;16.73;;;6.43;;
51764;SDS011;37835;53.256;6.456;2023-07-09T17:10:23;16.83;;;6.57;;
51764;SDS011;37835;53.256;6.456;2023-07-09T17:12:50;18.20;;;6.68;;
51764;SDS011;37835;53.256;6.456;2023-07-09T17:17:52;16.98;;;7.22;;
51764;SDS011;37835;53.256;6.456;2023-07-09T17:20:18;25.27;;;7.20;;
51764;SDS011;37835;53.256;6.456;2023-07-09T17:22:45;17.70;;;6.70;;
51764;SDS011;37835;53.256;6.456;2023-07-09T17:28:00;19.35;;;6.35;;
51764;SDS011;37835;53.256;6.456;2023-07-09T17:30:34;19.58;;;5.93;;
51764;SDS011;37835;53.256;6.456;2023-07-09T17:33:00;17.00;;;6.30;;
51764;SDS011;37835;53.256;6.456;2023-07-09T17:35:25;17.85;;;6.78;;
51764;SDS011;37835;53.256;6.456;2023-07-09T17:37:53;14.13;;;5.95;;
51764;SDS011;37835;53.256;6.456;2023-07-09T17:40:38;15.65;;;7.97;;
51764;SDS011;37835;53.256;6.456;2023-07-09T17:43:08;23.25;;;9.20;;